Time;durP1;ratioP1;P1;durP2;ratioP2;P2;SDS_P1;SDS_P2;PMS_P1;PMS_P2;Temp;Humidity;BMP_temperature;BMP_pressure;BME280_temperature;BME280_humidity;BME280_pressure;Samples;Min_cycle;Max_cycle;Signal;HPM_P1;HPM_P2
2021/12/10 00:00:26;;;;;;;6.93;5.57;;;5.90;99.90;;;;;;5090954;28;20407;-76
2021/12/10 00:02:52;;;;;;;5.68;4.90;;;5.80;99.90;;;;;;5088956;28;20029;-79
2021/12/10 00:05:32;;;;;;;10.65;5.63;;;5.80;99.90;;;;;;5090134;28;20054;-79
2021/12/10 00:07:59;;;;;;;8.90;5.22;;;5.80;99.90;;;;;;5089351;28;20107;-79
2021/12/10 00:10:33;;;;;;;11.82;6.10;;;5.80;99.90;;;;;;5090857;28;20039;-79
2021/12/10 00:13:02;;;;;;;10.98;5.07;;;5.70;99.90;;;;;;5090513;28;20012;-77
2021/12/10 00:15:36;;;;;;;14.07;6.30;;;5.70;99.90;;;;;;5083108;28;20120;-77
2021/12/10 00:18:05;;;;;;;15.73;7.13;;;5.60;99.90;;;;;;5085791;28;20043;-77
2021/12/10 00:20:33;;;;;;;11.60;6.40;;;5.50;99.90;;;;;;5086678;28;20043;-77
2021/12/10 00:23:04;;;;;;;7.07;5.47;;;5.40;99.90;;;;;;5087014;28;20881;-77
2021/12/10 00:25:38;;;;;;;7.73;6.43;;;5.30;99.90;;;;;;5088106;28;20535;-77
2021/12/10 00:28:16;;;;;;;10.73;7.40;;;5.20;99.90;;;;;;5084254;28;20107;-76
2021/12/10 00:31:07;;;;;;;8.43;6.50;;;5.10;99.90;;;;;;5085291;28;20075;-76
2021/12/10 00:33:40;;;;;;;8.38;6.20;;;5.00;99.90;;;;;;5088485;28;20048;-76
2021/12/10 00:36:10;;;;;;;8.80;6.47;;;5.00;99.90;;;;;;5085848;28;20032;-76
2021/12/10 00:38:37;;;;;;;8.27;6.40;;;5.00;99.90;;;;;;5088275;28;20054;-77
2021/12/10 00:41:05;;;;;;;7.47;5.70;;;5.10;99.90;;;;;;5086114;28;20127;-76
2021/12/10 00:43:32;;;;;;;19.40;12.05;;;5.10;99.90;;;;;;5089776;28;20088;-77
2021/12/10 00:45:58;;;;;;;9.75;6.25;;;5.20;99.90;;;;;;5089228;28;20016;-77
2021/12/10 00:48:24;;;;;;;7.07;5.97;;;5.10;99.90;;;;;;5089325;28;20039;-77
2021/12/10 00:50:52;;;;;;;7.22;5.57;;;5.10;99.90;;;;;;5088968;28;20051;-78
2021/12/10 00:53:18;;;;;;;7.20;5.72;;;5.10;99.90;;;;;;5085599;28;20470;-77
2021/12/10 00:55:44;;;;;;;6.60;5.05;;;5.10;99.90;;;;;;5086081;28;20081;-77
2021/12/10 00:58:11;;;;;;;7.63;5.32;;;5.10;99.90;;;;;;5090056;28;20035;-77
2021/12/10 01:00:45;;;;;;;6.60;5.60;;;5.20;99.90;;;;;;5086671;28;20032;-77
2021/12/10 01:03:14;;;;;;;6.32;5.32;;;5.20;99.90;;;;;;5084790;28;20025;-77
2021/12/10 01:05:45;;;;;;;7.43;5.53;;;5.30;99.90;;;;;;5086579;28;20028;-78
2021/12/10 01:08:11;;;;;;;6.25;4.65;;;5.30;99.90;;;;;;5084658;28;20027;-77
2021/12/10 01:10:59;;;;;;;6.50;5.65;;;5.30;99.90;;;;;;5087911;28;20044;-77
2021/12/10 01:13:30;;;;;;;6.85;5.25;;;5.30;99.90;;;;;;5087486;28;20012;-77
2021/12/10 01:24:50;;;;;;;6.93;5.63;;;5.20;99.90;;;;;;5087353;28;20069;-77
2021/12/10 01:27:32;;;;;;;7.65;5.22;;;5.20;99.90;;;;;;5082902;28;20028;-77
2021/12/10 01:30:23;;;;;;;6.85;5.38;;;5.20;99.90;;;;;;5086775;28;20173;-77
2021/12/10 01:32:55;;;;;;;7.35;5.18;;;5.20;99.90;;;;;;5081337;28;20028;-78
2021/12/10 01:35:25;;;;;;;7.68;5.75;;;5.10;99.90;;;;;;5083793;28;20450;-76
2021/12/10 01:37:53;;;;;;;6.70;5.28;;;5.10;99.90;;;;;;5082471;28;20028;-77
2021/12/10 01:40:22;;;;;;;7.43;5.57;;;5.00;99.90;;;;;;5084348;28;20036;-77
2021/12/10 01:42:52;;;;;;;6.60;5.28;;;5.00;99.90;;;;;;5080854;28;20086;-77
2021/12/10 01:45:22;;;;;;;5.88;5.28;;;4.90;99.90;;;;;;5082126;28;20035;-77
2021/12/10 01:47:56;;;;;;;6.25;5.20;;;4.90;99.90;;;;;;5082567;28;20024;-77
2021/12/10 01:50:22;;;;;;;13.65;5.63;;;4.80;99.90;;;;;;5085772;28;20037;-76
2021/12/10 01:52:51;;;;;;;6.50;5.35;;;4.70;99.90;;;;;;5087414;28;20039;-77
2021/12/10 01:55:20;;;;;;;7.35;5.70;;;4.70;99.90;;;;;;5089168;28;20031;-76
2021/12/10 01:57:46;;;;;;;6.72;5.78;;;4.60;99.90;;;;;;5089592;28;20017;-77
2021/12/10 02:00:13;;;;;;;7.28;5.50;;;4.60;99.90;;;;;;5086876;28;20474;-77
2021/12/10 02:02:44;;;;;;;6.45;5.00;;;4.60;99.90;;;;;;5090150;28;20118;-76
2021/12/10 02:05:11;;;;;;;6.75;6.00;;;4.50;99.90;;;;;;5088496;28;20048;-77
2021/12/10 02:07:37;;;;;;;7.13;5.55;;;4.50;99.90;;;;;;5092493;28;20040;-76
2021/12/10 02:10:05;;;;;;;6.65;5.95;;;4.50;99.90;;;;;;5090511;28;20028;-76
2021/12/10 02:12:31;;;;;;;8.55;6.03;;;4.60;99.90;;;;;;5084925;28;20035;-76
2021/12/10 02:15:02;;;;;;;7.18;5.35;;;4.70;99.90;;;;;;5087347;28;20071;-77
2021/12/10 02:17:41;;;;;;;6.47;5.77;;;4.60;99.90;;;;;;5081693;28;20101;-77
2021/12/10 02:20:15;;;;;;;8.18;5.70;;;4.50;99.90;;;;;;5089870;28;20274;-76
2021/12/10 02:22:43;;;;;;;7.35;5.75;;;4.50;99.90;;;;;;5090834;28;20031;-76
2021/12/10 02:25:10;;;;;;;7.47;5.70;;;4.50;99.90;;;;;;5084170;28;20020;-78
2021/12/10 02:27:39;;;;;;;8.60;5.43;;;4.40;99.90;;;;;;5091531;28;20541;-76
2021/12/10 02:30:09;;;;;;;7.55;5.60;;;4.40;99.90;;;;;;5087589;28;20028;-76
2021/12/10 02:32:35;;;;;;;5.85;5.28;;;4.30;99.90;;;;;;5090790;28;20024;-76
2021/12/10 02:35:01;;;;;;;7.63;6.13;;;4.20;99.90;;;;;;5082234;28;20024;-76
2021/12/10 02:37:27;;;;;;;7.97;5.88;;;4.20;99.90;;;;;;5088513;28;20531;-76
2021/12/10 02:39:53;;;;;;;8.13;5.68;;;4.20;99.90;;;;;;5091869;28;20492;-76
2021/12/10 02:42:18;;;;;;;5.25;4.75;;;4.20;99.90;;;;;;5090460;28;20277;-76
2021/12/10 02:44:45;;;;;;;5.20;4.70;;;4.20;99.90;;;;;;5088757;28;20117;-76
2021/12/10 02:47:10;;;;;;;8.45;5.30;;;4.20;99.90;;;;;;5090583;28;20387;-76
2021/12/10 02:49:37;;;;;;;7.10;5.22;;;4.20;99.90;;;;;;5088818;28;20036;-76
2021/12/10 02:52:04;;;;;;;5.60;4.53;;;4.20;99.90;;;;;;5089475;28;20028;-76
2021/12/10 02:54:34;;;;;;;8.27;5.63;;;4.20;99.90;;;;;;5090067;28;20078;-76
2021/12/10 02:57:08;;;;;;;7.20;5.45;;;4.20;99.90;;;;;;5089707;28;20031;-77
2021/12/10 02:59:35;;;;;;;6.15;5.28;;;4.20;99.90;;;;;;5088450;28;20027;-78
2021/12/10 03:02:03;;;;;;;7.15;5.97;;;4.10;99.90;;;;;;5090179;28;20481;-78
2021/12/10 03:04:31;;;;;;;8.77;5.70;;;4.00;99.90;;;;;;5090430;28;20038;-79
2021/12/10 03:07:00;;;;;;;7.40;6.03;;;4.00;99.90;;;;;;5089141;28;20066;-78
2021/12/10 03:09:28;;;;;;;11.20;6.20;;;4.00;99.90;;;;;;5089629;28;20105;-79
2021/12/10 03:11:56;;;;;;;8.82;6.10;;;4.00;99.90;;;;;;5086303;28;20028;-78
2021/12/10 03:14:29;;;;;;;7.30;5.80;;;3.90;99.90;;;;;;5090213;28;20478;-79
2021/12/10 03:16:57;;;;;;;8.38;6.60;;;3.90;99.90;;;;;;5086615;28;20064;-79
2021/12/10 03:19:23;;;;;;;7.50;5.47;;;3.90;99.90;;;;;;5082216;28;20039;-79
2021/12/10 03:21:51;;;;;;;7.07;5.88;;;3.80;99.90;;;;;;5089761;28;20028;-80
2021/12/10 03:24:23;;;;;;;9.07;6.43;;;3.80;99.90;;;;;;5084603;28;20039;-77
2021/12/10 03:26:51;;;;;;;7.75;6.50;;;3.80;99.90;;;;;;5083794;28;20478;-79
2021/12/10 03:29:20;;;;;;;9.02;6.97;;;3.80;99.90;;;;;;5089747;28;20101;-78
2021/12/10 03:31:46;;;;;;;7.90;6.22;;;3.80;99.90;;;;;;5082976;28;20075;-79
2021/12/10 03:34:12;;;;;;;7.88;6.10;;;3.80;99.90;;;;;;5091125;28;20051;-78
2021/12/10 03:36:45;;;;;;;7.78;5.60;;;3.80;99.90;;;;;;5091077;28;20047;-78
2021/12/10 03:39:13;;;;;;;6.85;5.70;;;3.80;99.90;;;;;;5085040;28;20119;-77
2021/12/10 03:41:39;;;;;;;9.27;5.88;;;3.80;99.90;;;;;;5090519;28;20414;-78
2021/12/10 03:44:05;;;;;;;6.53;5.43;;;3.80;99.90;;;;;;5089712;28;20674;-77
2021/12/10 03:46:30;;;;;;;5.63;4.95;;;3.90;99.90;;;;;;5090734;28;20038;-77
2021/12/10 03:48:56;;;;;;;9.23;6.25;;;3.90;99.90;;;;;;5083231;28;20493;-77
2021/12/10 03:51:24;;;;;;;6.57;5.75;;;3.80;99.90;;;;;;5088766;28;20036;-76
2021/12/10 03:53:50;;;;;;;7.03;5.10;;;3.80;99.90;;;;;;5089527;28;20039;-75
2021/12/10 03:56:20;;;;;;;7.82;5.80;;;3.70;99.90;;;;;;5089882;28;20535;-76
2021/12/10 03:58:51;;;;;;;7.32;5.70;;;3.60;99.90;;;;;;5086513;28;20016;-76
2021/12/10 04:01:21;;;;;;;7.57;5.50;;;3.60;99.90;;;;;;5084220;28;20031;-78
2021/12/10 04:03:48;;;;;;;7.75;5.63;;;3.60;99.90;;;;;;5090119;28;20053;-77
2021/12/10 04:06:14;;;;;;;8.50;6.13;;;3.60;99.90;;;;;;5089360;28;20051;-78
2021/12/10 04:08:40;;;;;;;6.70;5.53;;;3.60;99.90;;;;;;5079117;28;20033;-77
2021/12/10 04:11:07;;;;;;;8.02;5.97;;;3.60;99.90;;;;;;5087690;28;20501;-75
2021/12/10 04:13:34;;;;;;;8.52;5.80;;;3.60;99.90;;;;;;5088263;28;20474;-77
2021/12/10 04:16:00;;;;;;;7.40;5.60;;;3.60;99.90;;;;;;5091719;28;20498;-77
2021/12/10 04:18:26;;;;;;;7.20;6.03;;;3.80;99.90;;;;;;5092010;28;20024;-77
2021/12/10 04:20:52;;;;;;;9.02;6.13;;;3.80;99.90;;;;;;5087881;28;20036;-77
2021/12/10 04:23:20;;;;;;;8.20;6.72;;;3.80;99.90;;;;;;5089389;28;20528;-77
2021/12/10 04:25:46;;;;;;;8.82;6.88;;;3.80;99.90;;;;;;5090701;28;20028;-78
2021/12/10 04:28:14;;;;;;;9.63;6.80;;;3.80;99.90;;;;;;5087489;28;20038;-78
2021/12/10 04:30:42;;;;;;;8.23;6.13;;;3.70;99.90;;;;;;5083099;28;20028;-77
2021/12/10 04:33:12;;;;;;;8.18;5.97;;;3.70;99.90;;;;;;5090861;28;20061;-77
2021/12/10 04:35:38;;;;;;;8.27;6.72;;;3.70;99.90;;;;;;5087180;28;20032;-77
2021/12/10 04:38:04;;;;;;;8.00;6.68;;;3.70;99.90;;;;;;5089315;28;20027;-77
2021/12/10 04:40:31;;;;;;;9.18;6.75;;;3.70;99.90;;;;;;5079202;28;20040;-77
2021/12/10 04:42:57;;;;;;;7.32;6.18;;;3.70;99.90;;;;;;5089567;28;20385;-77
2021/12/10 04:45:24;;;;;;;8.25;6.05;;;3.70;99.90;;;;;;5083675;28;20024;-78
2021/12/10 04:47:50;;;;;;;11.18;7.22;;;3.70;99.90;;;;;;5087445;28;20027;-78
2021/12/10 04:50:20;;;;;;;8.10;6.30;;;3.70;99.90;;;;;;5080889;28;20043;-78
2021/12/10 04:52:46;;;;;;;6.88;6.18;;;3.70;99.90;;;;;;5079168;28;20041;-78
2021/12/10 04:55:14;;;;;;;6.75;5.75;;;3.70;99.90;;;;;;5082441;28;20103;-78
2021/12/10 04:57:40;;;;;;;7.63;6.18;;;3.70;99.90;;;;;;5089813;28;20012;-78
2021/12/10 05:00:12;;;;;;;7.03;6.22;;;3.60;99.90;;;;;;5090989;28;20099;-78
2021/12/10 05:02:38;;;;;;;8.23;6.70;;;3.60;99.90;;;;;;5088523;28;20024;-78
2021/12/10 05:05:05;;;;;;;8.63;6.18;;;3.60;99.90;;;;;;5084906;28;20027;-76
2021/12/10 05:07:35;;;;;;;13.07;6.88;;;3.50;99.90;;;;;;5085706;28;20024;-76
2021/12/10 05:10:03;;;;;;;8.55;6.55;;;3.60;99.90;;;;;;5089449;28;20024;-76
2021/12/10 05:12:28;;;;;;;9.50;6.15;;;3.50;99.90;;;;;;5087545;28;20032;-78
2021/12/10 05:14:59;;;;;;;10.75;6.32;;;3.60;99.90;;;;;;5089880;28;20024;-78
2021/12/10 05:17:28;;;;;;;7.22;5.75;;;3.70;99.90;;;;;;5089395;28;20061;-78
2021/12/10 05:19:54;;;;;;;6.95;5.75;;;3.70;99.90;;;;;;5089898;28;20413;-78
2021/12/10 05:22:23;;;;;;;8.48;6.18;;;3.80;99.90;;;;;;5090700;28;20032;-76
2021/12/10 05:24:49;;;;;;;7.93;6.45;;;3.80;99.90;;;;;;5090560;28;20118;-79
2021/12/10 05:27:14;;;;;;;7.78;5.63;;;3.70;99.90;;;;;;5090164;28;20087;-76
2021/12/10 05:29:40;;;;;;;7.25;5.72;;;3.70;99.90;;;;;;5088588;28;20482;-76
2021/12/10 05:32:07;;;;;;;6.45;5.80;;;3.70;99.90;;;;;;5078933;28;20031;-78
2021/12/10 05:34:32;;;;;;;8.20;6.45;;;3.80;99.90;;;;;;5088517;28;20060;-78
2021/12/10 05:37:02;;;;;;;11.65;7.18;;;3.80;99.90;;;;;;5087563;28;20081;-78
2021/12/10 05:39:28;;;;;;;7.15;6.45;;;3.80;99.90;;;;;;5090173;28;20490;-77
2021/12/10 05:41:54;;;;;;;8.63;6.90;;;3.70;99.90;;;;;;5086726;28;20036;-78
2021/12/10 05:44:21;;;;;;;8.38;6.25;;;3.70;99.90;;;;;;5090845;28;20023;-78
2021/12/10 05:46:46;;;;;;;7.53;6.72;;;3.70;99.90;;;;;;5079930;28;20086;-79
2021/12/10 05:49:13;;;;;;;7.80;6.20;;;3.70;99.90;;;;;;5086259;28;20021;-79
2021/12/10 05:51:40;;;;;;;8.52;6.15;;;3.70;99.90;;;;;;5088410;28;20032;-78
2021/12/10 05:54:06;;;;;;;8.25;5.93;;;3.80;99.90;;;;;;5090757;28;20051;-77
2021/12/10 05:56:32;;;;;;;9.10;5.43;;;3.70;99.90;;;;;;5089621;28;20543;-77
2021/12/10 05:58:58;;;;;;;8.18;6.05;;;3.80;99.90;;;;;;5087039;28;20078;-77
2021/12/10 06:01:24;;;;;;;7.68;5.57;;;3.80;99.90;;;;;;5090024;28;20020;-77
2021/12/10 06:03:52;;;;;;;11.43;6.65;;;3.80;99.90;;;;;;5090620;28;20050;-77
2021/12/10 06:06:24;;;;;;;8.15;6.75;;;3.80;99.90;;;;;;5084612;28;20020;-78
2021/12/10 06:08:51;;;;;;;10.27;7.18;;;3.80;99.90;;;;;;5090536;28;20035;-78
2021/12/10 06:11:17;;;;;;;10.90;7.38;;;3.80;99.90;;;;;;5078873;28;20511;-77
2021/12/10 06:13:45;;;;;;;12.70;7.68;;;3.70;99.90;;;;;;5088019;28;20031;-77
2021/12/10 06:16:11;;;;;;;11.50;7.18;;;3.60;99.90;;;;;;5087998;28;20388;-78
2021/12/10 06:18:40;;;;;;;9.48;6.82;;;3.60;99.90;;;;;;5083581;28;20025;-77
2021/12/10 06:21:06;;;;;;;8.05;6.50;;;3.60;99.90;;;;;;5084971;28;20024;-78
2021/12/10 06:23:32;;;;;;;8.07;6.57;;;3.60;99.90;;;;;;5089656;28;20024;-78
2021/12/10 06:25:58;;;;;;;7.47;6.72;;;3.50;99.90;;;;;;5082888;28;20052;-78
2021/12/10 06:28:23;;;;;;;11.10;6.55;;;3.50;99.90;;;;;;5086441;28;20502;-78
2021/12/10 06:30:52;;;;;;;10.68;7.38;;;3.50;99.90;;;;;;5089525;28;20081;-78
2021/12/10 06:33:20;;;;;;;9.30;6.90;;;3.50;99.90;;;;;;5088047;28;20031;-77
2021/12/10 06:35:49;;;;;;;8.00;6.18;;;3.50;99.90;;;;;;5089987;28;20020;-78
2021/12/10 06:38:16;;;;;;;9.15;6.65;;;3.50;99.90;;;;;;5087922;28;20029;-77
2021/12/10 06:40:44;;;;;;;7.18;5.72;;;3.50;99.90;;;;;;5085600;28;20085;-77
2021/12/10 06:43:11;;;;;;;7.68;6.28;;;3.50;99.90;;;;;;5093030;28;20032;-77
2021/12/10 06:45:37;;;;;;;7.32;6.32;;;3.50;99.90;;;;;;5092514;28;20421;-77
2021/12/10 06:48:06;;;;;;;8.48;5.82;;;3.50;99.90;;;;;;5093852;28;20039;-77
2021/12/10 06:50:36;;;;;;;8.95;6.55;;;3.50;99.90;;;;;;5093213;28;20032;-78
2021/12/10 06:53:02;;;;;;;9.85;7.15;;;3.50;99.90;;;;;;5083904;28;20456;-77
2021/12/10 06:55:31;;;;;;;9.68;7.10;;;3.40;99.90;;;;;;5093832;28;20034;-78
2021/12/10 06:57:57;;;;;;;9.75;6.15;;;3.40;99.90;;;;;;5092052;28;20024;-78
2021/12/10 07:00:31;;;;;;;7.18;6.10;;;3.40;99.90;;;;;;5089725;28;20024;-78
2021/12/10 07:02:57;;;;;;;10.02;6.35;;;3.40;99.90;;;;;;5086699;28;20036;-77
2021/12/10 07:05:23;;;;;;;8.18;5.88;;;3.50;99.90;;;;;;5092956;28;20028;-78
2021/12/10 07:07:49;;;;;;;8.27;6.30;;;3.50;99.90;;;;;;5084783;28;20541;-77
2021/12/10 07:10:16;;;;;;;8.90;6.35;;;3.60;99.90;;;;;;5085776;28;20448;-79
2021/12/10 07:12:43;;;;;;;8.27;6.40;;;3.60;99.90;;;;;;5091449;28;20482;-79
2021/12/10 07:15:11;;;;;;;6.38;5.35;;;3.70;99.90;;;;;;5092827;28;20028;-77
2021/12/10 07:17:39;;;;;;;9.38;6.43;;;3.70;99.90;;;;;;5092311;28;20077;-78
2021/12/10 07:20:06;;;;;;;6.85;5.75;;;3.80;99.90;;;;;;5088640;28;20024;-78
2021/12/10 07:22:32;;;;;;;9.48;6.35;;;3.90;99.90;;;;;;5088570;28;20108;-77
2021/12/10 07:24:58;;;;;;;7.90;6.10;;;3.90;99.90;;;;;;5089350;28;20103;-76
2021/12/10 07:27:24;;;;;;;8.40;6.38;;;4.00;99.90;;;;;;5091846;28;20028;-76
2021/12/10 07:29:49;;;;;;;10.48;5.97;;;4.10;99.90;;;;;;5087592;28;20056;-77
2021/12/10 07:32:15;;;;;;;9.57;5.60;;;4.20;99.90;;;;;;5090677;28;20059;-76
2021/12/10 07:34:41;;;;;;;8.63;6.30;;;4.30;99.90;;;;;;5087938;28;20024;-76
2021/12/10 07:37:10;;;;;;;9.93;6.05;;;4.40;99.90;;;;;;5090095;28;20119;-77
2021/12/10 07:39:37;;;;;;;7.85;6.00;;;4.50;99.90;;;;;;5092797;28;20077;-77
2021/12/10 07:42:05;;;;;;;6.65;5.63;;;4.60;99.90;;;;;;5091487;28;20065;-77
2021/12/10 07:44:30;;;;;;;8.10;5.47;;;4.60;99.90;;;;;;5091945;28;20034;-77
2021/12/10 07:46:56;;;;;;;7.63;5.78;;;4.70;99.90;;;;;;5086025;28;20032;-77
2021/12/10 07:49:28;;;;;;;8.20;5.93;;;4.80;99.90;;;;;;5086377;28;20050;-78
2021/12/10 07:51:55;;;;;;;5.97;4.93;;;4.90;99.90;;;;;;5091409;28;20081;-78
2021/12/10 07:54:21;;;;;;;6.30;5.57;;;5.00;99.90;;;;;;5089433;28;20055;-78
2021/12/10 07:56:47;;;;;;;6.75;5.25;;;4.90;99.90;;;;;;5088737;28;20085;-77
2021/12/10 07:59:13;;;;;;;8.45;5.28;;;4.90;99.90;;;;;;5090799;28;20095;-76
2021/12/10 08:01:39;;;;;;;6.88;5.30;;;4.90;99.90;;;;;;5084233;28;20025;-77
2021/12/10 08:04:06;;;;;;;6.63;5.35;;;5.00;99.90;;;;;;5090338;28;20045;-76
2021/12/10 08:06:33;;;;;;;8.05;5.40;;;5.10;99.90;;;;;;5086292;28;20590;-76
2021/12/10 08:09:01;;;;;;;7.47;5.40;;;5.10;99.90;;;;;;5088370;28;20081;-76
2021/12/10 08:11:26;;;;;;;7.88;5.53;;;5.20;99.90;;;;;;5087868;28;20028;-77
2021/12/10 08:13:53;;;;;;;7.03;5.60;;;5.10;99.90;;;;;;5081492;28;20100;-77
2021/12/10 08:16:19;;;;;;;5.72;5.13;;;5.10;99.90;;;;;;5086071;28;20024;-76
2021/12/10 08:18:45;;;;;;;7.57;5.68;;;5.20;99.90;;;;;;5089984;28;20426;-76
2021/12/10 08:21:11;;;;;;;8.15;5.82;;;5.20;99.90;;;;;;5087615;28;20020;-76
2021/12/10 08:23:38;;;;;;;9.93;5.35;;;5.20;99.90;;;;;;5086069;28;20284;-75
2021/12/10 08:26:05;;;;;;;8.43;5.70;;;5.20;99.90;;;;;;5086543;28;20508;-76
2021/12/10 08:28:33;;;;;;;7.00;5.93;;;5.30;99.90;;;;;;5090175;28;20024;-77
2021/12/10 08:31:00;;;;;;;8.13;5.85;;;5.40;99.90;;;;;;5089945;28;20055;-76
2021/12/10 08:33:27;;;;;;;6.15;5.13;;;5.60;99.90;;;;;;5082366;28;20478;-79
2021/12/10 08:35:58;;;;;;;6.63;5.55;;;5.80;99.90;;;;;;5089644;28;20024;-77
2021/12/10 08:38:25;;;;;;;6.32;5.07;;;5.90;99.90;;;;;;5086401;28;20020;-76
2021/12/10 08:40:57;;;;;;;8.55;5.85;;;6.10;99.90;;;;;;5088667;28;20044;-77
2021/12/10 08:43:23;;;;;;;7.40;5.25;;;6.10;99.90;;;;;;5091769;28;20073;-77
2021/12/10 08:45:52;;;;;;;5.80;4.72;;;6.20;99.90;;;;;;5086765;28;20024;-76
2021/12/10 08:48:22;;;;;;;6.80;5.72;;;6.20;99.90;;;;;;5084390;28;20024;-77
2021/12/10 08:50:48;;;;;;;6.28;5.43;;;6.30;99.90;;;;;;5087561;28;20036;-77
2021/12/10 08:53:14;;;;;;;7.32;5.00;;;6.50;99.90;;;;;;5090839;28;20055;-77
2021/12/10 08:55:45;;;;;;;5.68;5.10;;;6.70;99.90;;;;;;5084875;28;20028;-78
2021/12/10 08:58:12;;;;;;;7.05;4.93;;;6.90;99.90;;;;;;5077089;28;20024;-78
2021/12/10 09:00:42;;;;;;;7.32;4.82;;;7.00;99.90;;;;;;5081011;28;20024;-78
2021/12/10 09:03:08;;;;;;;5.85;4.95;;;7.20;99.90;;;;;;5089958;28;20024;-78
2021/12/10 09:05:35;;;;;;;5.55;4.63;;;7.20;99.90;;;;;;5089712;28;20038;-78
2021/12/10 09:08:01;;;;;;;6.10;4.78;;;7.20;99.90;;;;;;5075781;28;20067;-78
2021/12/10 09:10:31;;;;;;;4.95;4.53;;;7.20;99.90;;;;;;5083826;28;20036;-78
2021/12/10 09:12:58;;;;;;;5.63;4.70;;;7.20;99.90;;;;;;5090727;28;20047;-76
2021/12/10 09:15:26;;;;;;;6.90;4.85;;;7.20;99.90;;;;;;5086225;28;20490;-77
2021/12/10 09:17:57;;;;;;;8.57;5.07;;;7.30;99.90;;;;;;5090683;28;20501;-77
2021/12/10 09:20:29;;;;;;;7.90;5.68;;;7.40;99.90;;;;;;5088911;28;20175;-77
2021/12/10 09:22:55;;;;;;;18.90;7.75;;;7.60;99.90;;;;;;5086566;28;20016;-78
2021/12/10 09:25:21;;;;;;;5.93;5.28;;;7.80;99.90;;;;;;5086423;28;20085;-78
2021/12/10 09:27:47;;;;;;;5.45;4.93;;;8.00;99.90;;;;;;5088117;28;20690;-77
2021/12/10 09:30:17;;;;;;;6.88;5.07;;;8.20;99.90;;;;;;5081936;28;20105;-77
2021/12/10 09:32:44;;;;;;;9.52;5.90;;;8.40;99.90;;;;;;5087206;28;20020;-78
2021/12/10 09:35:12;;;;;;;5.07;4.32;;;8.50;99.90;;;;;;5088888;28;20060;-78
2021/12/10 09:37:40;;;;;;;6.03;4.78;;;8.80;99.90;;;;;;5090918;28;20024;-78
2021/12/10 09:40:13;;;;;;;6.47;4.93;;;9.10;99.90;;;;;;5083839;28;20130;-76
2021/12/10 09:42:39;;;;;;;;;;;9.30;99.90;;;;;;5088877;28;20035;-77
2021/12/10 09:45:06;;;;;;;5.50;4.00;;;9.60;99.90;;;;;;5088726;28;19973;-78
2021/12/10 09:47:32;;;;;;;6.47;4.28;;;9.80;99.90;;;;;;5086905;28;20025;-77
2021/12/10 09:49:57;;;;;;;6.15;4.25;;;9.80;99.90;;;;;;5086772;28;20043;-79
2021/12/10 09:52:26;;;;;;;4.60;4.20;;;9.80;99.90;;;;;;5090700;28;20421;-78
2021/12/10 09:54:53;;;;;;;5.75;3.92;;;9.70;99.90;;;;;;5079527;28;20020;-78
2021/12/10 09:57:23;;;;;;;4.35;3.70;;;9.60;99.90;;;;;;5088694;28;20024;-78
2021/12/10 09:59:51;;;;;;;4.72;4.15;;;9.60;99.90;;;;;;5089129;28;20020;-78
2021/12/10 10:02:19;;;;;;;4.57;3.67;;;9.50;99.90;;;;;;5110228;28;20020;-80
2021/12/10 10:04:49;;;;;;;6.25;4.53;;;9.60;99.90;;;;;;5090405;28;20017;-79
2021/12/10 10:07:19;;;;;;;8.68;4.00;;;9.80;99.90;;;;;;5091129;28;20049;-78
2021/12/10 10:09:48;;;;;;;5.47;4.03;;;9.80;99.90;;;;;;5090306;28;20016;-78
2021/12/10 10:12:19;;;;;;;5.65;4.20;;;10.00;99.90;;;;;;5090744;28;20024;-78
2021/12/10 10:14:45;;;;;;;6.80;4.47;;;10.10;99.90;;;;;;5090653;28;20016;-78
2021/12/10 10:17:12;;;;;;;4.65;3.75;;;10.20;99.90;;;;;;5092753;28;20756;-78
2021/12/10 10:19:40;;;;;;;5.80;3.55;;;10.30;99.90;;;;;;5093954;28;20024;-78
2021/12/10 10:22:17;;;;;;;4.22;3.63;;;10.40;99.90;;;;;;5092136;28;20108;-78
2021/12/10 10:24:46;;;;;;;4.35;3.78;;;10.60;99.90;;;;;;5088361;28;20085;-79
2021/12/10 10:27:27;;;;;;;4.55;3.40;;;10.70;99.90;;;;;;5091008;28;20032;-78
2021/12/10 10:30:22;;;;;;;3.47;3.05;;;10.90;99.90;;;;;;5091886;28;20024;-78
2021/12/10 10:32:48;;;;;;;4.35;3.95;;;10.80;99.90;;;;;;5089548;28;20028;-77
2021/12/10 10:35:22;;;;;;;4.35;3.60;;;10.80;99.90;;;;;;5093443;28;20024;-78
2021/12/10 10:37:48;;;;;;;4.13;3.45;;;10.80;99.90;;;;;;5093546;28;20054;-79
2021/12/10 10:40:18;;;;;;;4.03;3.40;;;10.70;99.90;;;;;;5087486;28;20036;-79
2021/12/10 10:42:44;;;;;;;4.47;3.72;;;10.80;99.90;;;;;;5093893;28;20055;-79
2021/12/10 10:45:17;;;;;;;6.78;4.20;;;10.80;99.90;;;;;;5093770;28;20638;-77
2021/12/10 10:47:44;;;;;;;4.20;3.45;;;10.90;99.90;;;;;;5093709;28;20020;-77
2021/12/10 10:50:33;;;;;;;5.05;3.88;;;10.90;99.90;;;;;;5092184;28;20028;-77
2021/12/10 10:53:10;;;;;;;6.35;4.10;;;10.90;99.90;;;;;;5092279;28;20604;-76
2021/12/10 10:55:40;;;;;;;4.78;3.80;;;10.90;99.90;;;;;;5088422;28;20394;-77
2021/12/10 10:58:14;;;;;;;4.45;3.63;;;10.80;99.90;;;;;;5093518;28;20023;-78
2021/12/10 11:01:01;;;;;;;5.10;3.75;;;10.80;99.90;;;;;;5093259;28;20040;-77
2021/12/10 11:03:52;;;;;;;4.13;3.72;;;10.80;99.90;;;;;;5093163;28;20020;-78
2021/12/10 11:06:26;;;;;;;5.38;4.10;;;10.80;99.90;;;;;;5089436;28;20504;-78
2021/12/10 11:09:08;;;;;;;6.18;5.07;;;10.90;99.90;;;;;;5093331;28;20027;-79
2021/12/10 11:11:35;;;;;;;6.25;5.00;;;11.00;99.90;;;;;;5086710;28;20509;-78
2021/12/10 11:14:04;;;;;;;10.75;4.50;;;11.10;99.90;;;;;;5092021;28;20375;-79
2021/12/10 11:16:33;;;;;;;4.35;3.63;;;11.10;99.90;;;;;;5092276;28;20032;-77
2021/12/10 11:19:07;;;;;;;7.25;4.60;;;11.10;99.90;;;;;;5092925;28;20048;-77
2021/12/10 11:22:08;;;;;;;9.95;6.68;;;11.10;99.90;;;;;;5091462;28;20051;-77
2021/12/10 11:24:55;;;;;;;6.10;3.90;;;11.00;99.90;;;;;;5091899;28;20024;-78
2021/12/10 11:27:34;;;;;;;4.78;4.03;;;10.90;99.90;;;;;;5089783;28;20498;-78
2021/12/10 11:30:02;;;;;;;4.07;3.67;;;10.80;99.90;;;;;;5091447;28;20124;-78
2021/12/10 11:32:34;;;;;;;4.65;4.10;;;10.70;99.90;;;;;;5091327;28;20040;-78
2021/12/10 11:35:14;;;;;;;6.15;3.72;;;10.70;99.90;;;;;;5084595;28;20036;-78
2021/12/10 11:37:49;;;;;;;5.40;3.83;;;10.50;99.90;;;;;;5089807;28;20390;-77
2021/12/10 11:40:47;;;;;;;4.50;3.38;;;10.50;99.90;;;;;;5092517;28;20045;-77
2021/12/10 11:49:06;;;;;;;6.05;3.85;;;10.70;99.90;;;;;;5088705;28;20413;-79
2021/12/10 11:51:44;;;;;;;4.07;3.40;;;10.70;99.90;;;;;;5089398;28;20044;-79
2021/12/10 11:54:24;;;;;;;5.47;3.70;;;10.70;99.90;;;;;;5092630;28;20501;-81
2021/12/10 11:57:12;;;;;;;4.20;3.78;;;10.60;99.90;;;;;;5090064;28;20031;-79
2021/12/10 11:59:53;;;;;;;7.18;4.18;;;10.60;99.90;;;;;;5087379;28;20028;-82
2021/12/10 12:02:41;;;;;;;5.30;4.10;;;10.60;99.90;;;;;;5089709;28;20527;-80
2021/12/10 12:05:13;;;;;;;5.25;4.70;;;10.30;99.90;;;;;;5075368;28;20119;-80
2021/12/10 12:07:41;;;;;;;;;;;10.10;99.90;;;;;;5092821;28;20047;-79
2021/12/10 12:10:19;;;;;;;6.07;4.85;;;9.90;99.90;;;;;;5090654;28;19916;-79
2021/12/10 12:12:46;;;;;;;5.60;5.00;;;9.90;99.90;;;;;;5090744;28;20035;-79
2021/12/10 12:15:33;;;;;;;6.10;5.00;;;9.70;99.90;;;;;;5084948;28;20016;-81
2021/12/10 12:18:02;;;;;;;6.32;4.55;;;9.60;99.90;;;;;;5084389;28;20055;-80
2021/12/10 12:20:37;;;;;;;9.70;5.40;;;9.50;99.90;;;;;;5089938;28;20020;-78
2021/12/10 12:26:19;;;;;;;6.05;5.10;;;9.40;99.90;;;;;;5084513;28;20094;-76
2021/12/10 12:28:51;;;;;;;5.80;4.57;;;9.50;99.90;;;;;;5089775;28;20028;-79
2021/12/10 12:31:23;;;;;;;7.60;5.20;;;9.70;99.90;;;;;;5092426;28;20572;-78
2021/12/10 12:34:00;;;;;;;6.10;4.32;;;10.00;99.90;;;;;;5089542;28;20024;-78
2021/12/10 12:36:39;;;;;;;5.25;4.45;;;10.40;99.90;;;;;;5087813;28;20024;-78
2021/12/10 12:39:39;;;;;;;7.18;4.65;;;10.70;99.90;;;;;;5076061;28;20025;-77
2021/12/10 12:42:18;;;;;;;5.60;4.63;;;11.00;99.90;;;;;;5086236;28;20044;-79
2021/12/10 12:44:45;;;;;;;6.97;4.63;;;11.30;99.90;;;;;;5084808;28;20474;-78
2021/12/10 12:47:15;;;;;;;6.43;5.10;;;11.50;99.90;;;;;;5087875;28;20032;-79
2021/12/10 12:49:52;;;;;;;5.68;4.40;;;11.30;99.90;;;;;;5084884;28;20016;-78
2021/12/10 12:52:26;;;;;;;5.43;4.72;;;10.80;99.90;;;;;;5088025;28;20055;-79
2021/12/10 12:55:10;;;;;;;8.38;4.63;;;10.40;99.90;;;;;;5087526;28;20032;-78
2021/12/10 12:57:51;;;;;;;5.05;4.43;;;10.20;99.90;;;;;;5088782;28;20107;-79
2021/12/10 13:00:36;;;;;;;5.00;4.40;;;10.00;99.90;;;;;;5083062;28;20470;-78
2021/12/10 13:03:20;;;;;;;7.22;4.50;;;9.80;99.90;;;;;;5098120;28;20040;-78
2021/12/10 13:05:51;;;;;;;6.57;4.70;;;9.70;99.90;;;;;;5090856;28;20024;-78
2021/12/10 13:08:27;;;;;;;5.70;4.32;;;9.50;99.90;;;;;;5091132;28;20028;-77
2021/12/10 13:11:11;;;;;;;5.65;4.32;;;9.30;99.90;;;;;;5090560;28;20486;-78
2021/12/10 13:13:47;;;;;;;6.22;4.05;;;9.30;99.90;;;;;;5089794;28;20031;-78
2021/12/10 13:16:26;;;;;;;5.93;4.75;;;9.30;99.90;;;;;;5090745;28;20024;-78
2021/12/10 13:18:52;;;;;;;10.30;5.57;;;9.30;99.90;;;;;;5090670;28;20110;-77
2021/12/10 13:21:18;;;;;;;6.90;5.18;;;9.30;99.90;;;;;;5090702;28;20164;-78
2021/12/10 13:23:43;;;;;;;9.40;6.43;;;9.40;99.90;;;;;;5090923;28;20028;-77
2021/12/10 13:26:11;;;;;;;6.57;5.40;;;9.50;99.90;;;;;;5090442;28;20749;-78